Terminal Aerodrome Forecast
Issued by NWS

Home | Current Version | Previous Version | Text Only | Print | Product List | Glossary On
Versions: 1 2 3 4 5 6 7 8 9 10 11 12 13 14 15 16 17 18 19 20 21
000
FTUS43 KMPX 010500 RRA
TAFRWF
TAF
KRWF 010540Z 0106/0206 15015KT P6SM SCT050 BKN090
     FM010700 15013KT P6SM OVC012
      TEMPO 0109/0113 3SM BR BKN008
     FM011600 18008KT P6SM OVC018
     FM012000 22007KT P6SM SCT030 BKN070
     FM020300 25006KT P6SM BKN100=

USA.gov is the U.S. government's official web portal to all federal, state and local government web resources and services.